createdAt,value
2019-04-11T00:02:25.020Z,72.70
2019-04-11T00:04:54.656Z,73.40
2019-04-11T00:07:23.020Z,72.60
2019-04-11T00:09:51.333Z,72.50
2019-04-11T00:12:19.860Z,72.70
2019-04-11T00:14:48.386Z,72.80
2019-04-11T00:17:17.501Z,72.50
2019-04-11T00:19:45.962Z,72.70
2019-04-11T00:22:14.256Z,72.80
2019-04-11T00:24:43.022Z,72.90
2019-04-11T00:27:11.425Z,72.70
2019-04-11T00:29:40.638Z,72.80
2019-04-11T00:32:10.501Z,72.70
2019-04-11T00:34:42.782Z,72.70
2019-04-11T00:37:16.885Z,72.60
2019-04-11T00:39:45.828Z,72.70
2019-04-11T00:42:14.562Z,72.50
2019-04-11T00:44:43.199Z,72.60
2019-04-11T00:47:11.532Z,72.90
2019-04-11T00:49:40.763Z,72.90
2019-04-11T00:52:09.119Z,72.70
2019-04-11T00:54:38.520Z,72.70
2019-04-11T00:57:06.919Z,72.50
2019-04-11T00:59:35.225Z,72.70
2019-04-11T01:02:03.499Z,72.60
2019-04-11T01:04:32.728Z,72.40
2019-04-11T01:07:01.104Z,72.60
2019-04-11T01:09:30.570Z,72.40
2019-04-11T01:11:58.977Z,72.40
2019-04-11T01:14:27.918Z,72.30
2019-04-11T01:16:56.911Z,72.30
2019-04-11T01:19:25.474Z,72.40
2019-04-11T01:21:54.756Z,72.40
2019-04-11T01:24:23.878Z,72.20
2019-04-11T01:26:52.225Z,72.20
2019-04-11T01:29:20.458Z,72.00
2019-04-11T01:31:51.379Z,72.00
2019-04-11T01:34:20.287Z,72.00
2019-04-11T01:36:48.713Z,71.90
2019-04-11T01:39:25.202Z,71.80
2019-04-11T01:41:55.166Z,71.50
2019-04-11T01:44:23.526Z,71.60
2019-04-11T01:46:51.775Z,71.90
2019-04-11T01:49:24.221Z,71.60
2019-04-11T01:51:52.509Z,71.20
2019-04-11T01:54:21.759Z,71.10
2019-04-11T01:56:50.198Z,71.00
2019-04-11T01:59:19.455Z,70.90
2019-04-11T02:01:55.311Z,71.20
2019-04-11T02:04:25.321Z,71.10
2019-04-11T02:06:54.124Z,71.00
2019-04-11T02:09:22.448Z,71.00
2019-04-11T02:11:51.937Z,70.90
2019-04-11T02:14:21.495Z,70.40
2019-04-11T02:16:51.143Z,70.20
2019-04-11T02:19:20.415Z,69.30
2019-04-11T02:21:51.672Z,68.80
2019-04-11T02:24:39.672Z,68.30
2019-04-11T02:27:27.522Z,68.00
2019-04-11T02:29:55.854Z,67.70
2019-04-11T02:32:27.042Z,67.70
2019-04-11T02:34:58.914Z,67.20
2019-04-11T02:37:26.292Z,67.30
2019-04-11T02:39:56.004Z,67.20
2019-04-11T02:42:25.571Z,66.70
2019-04-11T02:45:12.084Z,66.70
2019-04-11T02:47:29.662Z,66.70
2019-04-11T02:49:55.033Z,66.50
2019-04-11T02:52:25.125Z,66.10
2019-04-11T02:54:54.530Z,65.80
2019-04-11T02:57:23.493Z,65.40
2019-04-11T02:59:53.846Z,64.50
2019-04-11T03:02:23.814Z,64.10
2019-04-11T03:04:52.871Z,64.00
2019-04-11T03:07:22.702Z,63.90
2019-04-11T03:09:51.808Z,63.80
2019-04-11T03:12:21.974Z,64.00
2019-04-11T03:15:10.874Z,63.60
2019-04-11T03:17:28.691Z,63.60
2019-04-11T03:20:02.757Z,63.30
2019-04-11T03:22:22.572Z,63.30
2019-04-11T03:24:53.000Z,63.20
2019-04-11T03:27:22.465Z,63.00
2019-04-11T03:29:51.607Z,62.90
2019-04-11T03:35:38.652Z,63.00
2019-04-11T03:37:47.782Z,63.50
2019-04-11T03:40:04.581Z,62.80
2019-04-11T03:42:36.644Z,63.10
2019-04-11T03:45:13.892Z,63.20
2019-04-11T03:47:36.428Z,63.00
2019-04-11T03:49:56.243Z,62.60
2019-04-11T03:52:20.837Z,62.70
2019-04-11T03:54:49.617Z,62.10
2019-04-11T03:57:18.173Z,61.70
2019-04-11T03:59:47.838Z,61.20
2019-04-11T04:02:16.942Z,76.50
2019-04-11T04:04:45.699Z,74.70
2019-04-11T04:07:16.447Z,73.60
2019-04-11T04:09:45.941Z,74.00
2019-04-11T04:12:15.484Z,73.50
2019-04-11T04:14:51.645Z,74.30
2019-04-11T04:17:23.485Z,74.50
2019-04-11T04:19:59.658Z,74.20
2019-04-11T04:22:31.517Z,74.50
2019-04-11T04:25:01.070Z,77.70
2019-04-11T04:27:30.511Z,76.40
2019-04-11T04:30:01.590Z,77.90
2019-04-11T04:32:30.446Z,79.00
2019-04-11T04:35:01.135Z,79.80
2019-04-11T04:37:29.667Z,80.20
2019-04-11T04:40:21.251Z,80.70
2019-04-11T04:42:33.318Z,79.80
2019-04-11T04:44:58.788Z,78.10
2019-04-11T04:47:37.047Z,77.60
2019-04-11T04:49:57.193Z,76.70
2019-04-11T04:52:27.291Z,76.40
2019-04-11T04:54:57.752Z,76.00
2019-04-11T04:57:26.793Z,76.10
2019-04-11T04:59:55.568Z,76.10
2019-04-11T05:02:24.622Z,78.00
2019-04-11T05:04:54.400Z,77.70
2019-04-11T05:07:23.577Z,77.50
2019-04-11T05:09:52.015Z,77.50
2019-04-11T05:12:20.686Z,78.10
2019-04-11T05:14:49.853Z,78.30
2019-04-11T05:17:19.228Z,78.30
2019-04-11T05:19:48.694Z,78.20
2019-04-11T05:22:17.159Z,78.70
2019-04-11T05:24:45.408Z,78.90
2019-04-11T05:27:14.633Z,78.60
2019-04-11T05:29:43.923Z,78.30
2019-04-11T05:32:13.179Z,77.80
2019-04-11T05:34:41.704Z,78.50
2019-04-11T05:37:10.849Z,78.30
2019-04-11T05:39:39.859Z,78.90
2019-04-11T05:42:09.262Z,78.90
2019-04-11T05:44:39.230Z,79.30
2019-04-11T05:47:07.571Z,78.90
2019-04-11T05:49:45.083Z,78.90
2019-04-11T05:52:13.853Z,79.20
2019-04-11T05:54:47.607Z,79.60
2019-04-11T05:57:13.756Z,79.50
2019-04-11T05:59:45.976Z,79.30
2019-04-11T06:02:15.295Z,78.90
2019-04-11T06:04:45.703Z,78.50
2019-04-11T06:07:23.176Z,78.40
2019-04-11T06:09:54.568Z,78.40
2019-04-11T06:12:25.465Z,78.40
2019-04-11T06:15:04.475Z,78.30
2019-04-11T06:17:32.730Z,78.90
2019-04-11T06:20:21.932Z,73.10
2019-04-11T06:23:04.982Z,71.80
2019-04-11T06:25:51.395Z,71.00
2019-04-11T06:28:30.755Z,70.80
2019-04-11T06:31:18.101Z,70.80
2019-04-11T06:33:49.064Z,70.70
2019-04-11T06:36:26.643Z,70.90
2019-04-11T06:39:02.971Z,70.40
2019-04-11T06:41:33.039Z,71.00
2019-04-11T06:44:03.002Z,73.50
2019-04-11T06:46:48.845Z,72.80
2019-04-11T06:49:16.365Z,72.60
2019-04-11T06:51:53.409Z,72.90
2019-04-11T06:54:26.197Z,72.90
2019-04-11T06:56:54.458Z,74.10
2019-04-11T06:59:30.515Z,73.80
2019-04-11T07:02:11.526Z,74.10
2019-04-11T07:04:44.094Z,74.40
2019-04-11T07:07:13.712Z,74.90
2019-04-11T07:09:53.456Z,74.80
2019-04-11T07:12:24.459Z,74.40
2019-04-11T07:15:06.841Z,74.80
2019-04-11T07:17:53.021Z,74.30
2019-04-11T07:20:38.193Z,74.20
2019-04-11T07:23:24.636Z,74.50
2019-04-11T07:26:00.452Z,74.10
2019-04-11T07:28:43.840Z,74.60
2019-04-11T07:31:21.348Z,74.30
2019-04-11T07:33:54.954Z,74.20
2019-04-11T07:36:38.413Z,74.50
2019-04-11T07:39:12.744Z,74.50
2019-04-11T07:41:43.843Z,75.10
2019-04-11T07:44:17.679Z,75.80
2019-04-11T07:46:47.662Z,74.90
2019-04-11T07:49:17.882Z,75.40
2019-04-11T07:51:48.639Z,75.10
2019-04-11T07:54:17.994Z,74.80
2019-04-11T07:56:48.601Z,75.40
2019-04-11T07:59:35.213Z,75.10
2019-04-11T08:02:05.815Z,75.90
2019-04-11T08:04:53.227Z,76.20
2019-04-11T08:07:30.412Z,78.50
2019-04-11T08:10:18.206Z,78.20
2019-04-11T08:12:48.044Z,77.70
2019-04-11T08:15:34.479Z,78.20
2019-04-11T08:18:04.351Z,77.20
2019-04-11T08:20:50.776Z,78.10
2019-04-11T08:23:21.381Z,77.30
2019-04-11T08:26:08.039Z,77.10
2019-04-11T08:28:37.278Z,77.10
2019-04-11T08:31:26.445Z,77.40
2019-04-11T08:33:57.204Z,77.20
2019-04-11T08:36:29.910Z,76.70
2019-04-11T08:38:58.555Z,76.70
2019-04-11T08:41:28.881Z,76.90
2019-04-11T08:43:57.320Z,76.30
2019-04-11T08:46:37.281Z,76.50
2019-04-11T08:49:17.136Z,75.80
2019-04-11T08:51:47.421Z,75.70
2019-04-11T08:54:20.141Z,75.80
2019-04-11T08:56:49.455Z,76.30
2019-04-11T08:59:35.960Z,75.60
2019-04-11T09:02:04.701Z,75.60
2019-04-11T09:05:02.710Z,75.30
2019-04-11T09:07:22.529Z,72.20
2019-04-11T09:09:55.636Z,72.20
2019-04-11T09:12:24.604Z,74.60
2019-04-11T09:15:00.631Z,73.50
2019-04-11T09:17:30.547Z,64.70
2019-04-11T09:20:00.439Z,61.90
2019-04-11T09:22:33.362Z,62.10
2019-04-11T09:25:09.299Z,64.50
2019-04-11T09:27:55.741Z,64.50
2019-04-11T09:30:34.673Z,62.40
2019-04-11T09:33:04.789Z,61.60
2019-04-11T09:35:41.573Z,61.70
2019-04-11T09:38:14.379Z,62.40
2019-04-11T09:40:44.371Z,65.40
2019-04-11T09:43:17.899Z,65.10
2019-04-11T09:45:48.294Z,66.60
2019-04-11T09:48:37.907Z,61.30
2019-04-11T09:51:29.035Z,60.80
2019-04-11T09:54:08.559Z,60.40
2019-04-11T09:56:51.759Z,60.50
2019-04-11T09:59:39.294Z,60.80
2019-04-11T10:02:16.778Z,60.60
2019-04-11T10:04:48.018Z,60.20
2019-04-11T10:07:18.102Z,59.80
2019-04-11T10:09:48.485Z,60.00
2019-04-11T10:12:36.027Z,60.10
2019-04-11T10:15:07.184Z,59.50
2019-04-11T10:17:54.738Z,59.60
2019-04-11T10:20:23.055Z,74.30
2019-04-11T10:22:56.369Z,72.50
2019-04-11T10:25:28.316Z,66.30
2019-04-11T10:28:04.888Z,64.60
2019-04-11T10:30:48.156Z,63.60
2019-04-11T10:33:17.614Z,62.30
2019-04-11T10:35:54.484Z,60.30
2019-04-11T10:38:22.946Z,60.80
2019-04-11T10:40:52.857Z,61.10
2019-04-11T10:43:22.383Z,60.10
2019-04-11T10:46:11.254Z,59.90
2019-04-11T10:48:46.722Z,58.50
2019-04-11T10:51:16.998Z,59.20
2019-04-11T10:53:45.568Z,59.00
2019-04-11T10:56:22.159Z,58.60
2019-04-11T10:58:53.165Z,58.30
2019-04-11T11:01:40.150Z,57.70
2019-04-11T11:04:10.146Z,58.20
2019-04-11T11:06:38.404Z,57.80
2019-04-11T11:09:17.707Z,57.00
2019-04-11T11:11:54.798Z,56.50
2019-04-11T11:14:34.514Z,56.80
2019-04-11T11:17:04.624Z,54.70
2019-04-11T11:19:52.356Z,54.00
2019-04-11T11:22:10.455Z,53.70
2019-04-11T11:24:40.658Z,53.20
2019-04-11T11:27:09.444Z,53.70
2019-04-11T11:29:40.391Z,54.40
2019-04-11T11:32:11.309Z,54.10
2019-04-11T11:34:41.286Z,53.80
2019-04-11T11:37:29.027Z,53.20
2019-04-11T11:40:04.928Z,52.40
2019-04-11T11:42:34.455Z,52.20
2019-04-11T11:45:17.636Z,52.00
2019-04-11T11:47:57.234Z,52.20
2019-04-11T11:50:29.593Z,52.30
2019-04-11T11:53:08.218Z,52.30
2019-04-11T11:55:41.270Z,50.90
2019-04-11T11:58:27.893Z,51.10
2019-04-11T12:01:01.219Z,50.60
2019-04-11T12:03:40.435Z,50.70
2019-04-11T12:06:09.655Z,50.40
2019-04-11T12:08:51.863Z,50.50
2019-04-11T12:11:21.871Z,50.70
2019-04-11T12:13:55.795Z,50.70
2019-04-11T12:16:25.971Z,50.10
2019-04-11T12:18:56.235Z,50.20
2019-04-11T12:21:32.457Z,50.00
2019-04-11T12:24:06.663Z,50.50
2019-04-11T12:26:37.825Z,50.90
2019-04-11T12:29:24.193Z,51.30
2019-04-11T12:31:54.091Z,51.30
2019-04-11T12:34:41.019Z,51.20
2019-04-11T12:37:12.498Z,51.60
2019-04-11T12:39:49.736Z,52.10
2019-04-11T12:42:19.638Z,52.50
2019-04-11T12:45:06.537Z,52.80
2019-04-11T12:47:38.299Z,53.40
2019-04-11T12:50:25.714Z,53.80
2019-04-11T12:52:55.607Z,53.90
2019-04-11T12:55:31.482Z,54.10
2019-04-11T12:58:10.381Z,53.90
2019-04-11T13:00:40.271Z,53.70
2019-04-11T13:03:26.609Z,53.80
2019-04-11T13:06:11.834Z,54.00
2019-04-11T13:08:57.994Z,54.10
2019-04-11T13:11:27.892Z,54.30
2019-04-11T13:14:14.074Z,54.30
2019-04-11T13:16:43.955Z,53.00
2019-04-11T13:19:22.748Z,52.50
2019-04-11T13:21:52.653Z,52.80
2019-04-11T13:24:39.060Z,52.80
2019-04-11T13:27:15.084Z,53.20
2019-04-11T13:29:44.998Z,53.00
2019-04-11T13:32:29.684Z,53.40
2019-04-11T13:34:59.574Z,53.00
2019-04-11T13:37:45.802Z,52.70
2019-04-11T13:40:31.983Z,52.70
2019-04-11T13:43:01.868Z,53.00
2019-04-11T13:45:31.761Z,52.70
2019-04-11T13:48:17.924Z,52.60
2019-04-11T13:50:47.636Z,52.50
2019-04-11T13:53:26.668Z,52.60
2019-04-11T13:55:55.211Z,52.30
2019-04-11T13:58:30.887Z,52.70
2019-04-11T14:01:03.736Z,53.50
2019-04-11T14:03:43.029Z,52.90
2019-04-11T14:06:12.920Z,52.80
2019-04-11T14:08:55.120Z,52.70
2019-04-11T14:11:27.847Z,52.50
2019-04-11T14:13:56.091Z,52.40
2019-04-11T14:16:29.939Z,52.60
2019-04-11T14:19:16.251Z,53.20
2019-04-11T14:21:46.182Z,52.60
2019-04-11T14:24:34.245Z,53.30
2019-04-11T14:27:04.119Z,53.20
2019-04-11T14:29:52.209Z,52.60
2019-04-11T14:32:27.850Z,52.90
2019-04-11T14:35:00.459Z,52.90
2019-04-11T14:37:38.224Z,52.80
2019-04-11T14:40:05.170Z,52.90
2019-04-11T14:42:46.207Z,53.10
2019-04-11T14:48:20.771Z,53.50
2019-04-11T14:50:50.666Z,53.50
2019-04-11T14:53:35.546Z,53.70
2019-04-11T14:56:05.422Z,53.50
2019-04-11T14:58:53.860Z,53.80
2019-04-11T15:01:23.738Z,53.30
2019-04-11T15:03:53.854Z,53.40
2019-04-11T15:06:23.740Z,53.20
2019-04-11T15:08:53.653Z,53.30
2019-04-11T15:11:39.767Z,53.20
2019-04-11T15:14:09.701Z,53.30
2019-04-11T15:16:42.339Z,53.10
2019-04-11T15:19:10.675Z,53.50
2019-04-11T15:21:55.535Z,53.70
2019-04-11T15:24:23.815Z,53.60
2019-04-11T15:26:53.724Z,53.60
2019-04-11T15:29:23.625Z,53.50
2019-04-11T15:31:59.545Z,53.60
2019-04-11T15:34:33.960Z,53.90
2019-04-11T15:37:09.832Z,54.00
2019-04-11T15:39:56.272Z,54.10
2019-04-11T15:42:29.109Z,54.30
2019-04-11T15:45:01.666Z,54.60
2019-04-11T15:47:30.883Z,54.30
2019-04-11T15:50:16.918Z,54.20
2019-04-11T15:52:46.820Z,54.40
2019-04-11T15:55:33.107Z,54.30
2019-04-11T15:58:01.378Z,54.60
2019-04-11T16:00:47.653Z,54.60
2019-04-11T16:03:16.062Z,54.60
2019-04-11T16:06:02.846Z,55.10
2019-04-11T16:08:32.862Z,55.40
2019-04-11T16:11:05.731Z,55.10
2019-04-11T16:13:35.625Z,55.00
2019-04-11T16:16:11.391Z,55.00
2019-04-11T16:18:49.025Z,54.80
2019-04-11T16:21:25.030Z,54.90
2019-04-11T16:23:57.887Z,55.00
2019-04-11T16:26:39.765Z,55.10
2019-04-11T16:29:12.516Z,55.30
2019-04-11T16:31:41.935Z,55.40
2019-04-11T16:34:15.833Z,55.50
2019-04-11T16:36:43.473Z,55.40
2019-04-11T16:39:29.568Z,55.40
2019-04-11T16:41:59.449Z,55.40
2019-04-11T16:44:32.222Z,55.60
2019-04-11T16:47:18.337Z,55.70
2019-04-11T16:49:46.620Z,55.80
2019-04-11T16:52:14.861Z,56.00
2019-04-11T16:54:43.117Z,56.20
2019-04-11T16:57:13.571Z,56.30
2019-04-11T16:59:41.432Z,56.30
2019-04-11T17:02:09.711Z,56.40
2019-04-11T17:04:37.973Z,56.50
2019-04-11T17:07:11.111Z,56.50
2019-04-11T17:09:40.317Z,56.50
2019-04-11T17:12:08.571Z,56.60
2019-04-11T17:14:36.826Z,56.60
2019-04-11T17:17:14.541Z,56.90
2019-04-11T17:19:36.266Z,57.10
2019-04-11T17:22:05.066Z,56.90
2019-04-11T17:24:38.553Z,56.70
2019-04-11T17:27:06.995Z,56.60
2019-04-11T17:29:35.240Z,56.60
2019-04-11T17:32:04.169Z,56.60
2019-04-11T17:34:36.963Z,56.60
2019-04-11T17:37:05.225Z,56.50
2019-04-11T17:39:36.395Z,56.70
2019-04-11T17:42:06.668Z,56.60
2019-04-11T17:44:36.485Z,56.60
2019-04-11T17:47:07.852Z,56.40
2019-04-11T17:49:37.916Z,56.50
2019-04-11T17:52:11.822Z,57.10
2019-04-11T17:54:40.084Z,56.40
2019-04-11T17:57:08.368Z,56.40
2019-04-11T17:59:38.258Z,56.40
2019-04-11T18:02:12.038Z,56.40
2019-04-11T18:04:58.911Z,56.30
2019-04-11T18:10:32.332Z,56.60
2019-04-11T18:13:02.233Z,56.20
2019-04-11T18:15:31.164Z,56.20
2019-04-11T18:18:00.201Z,56.30
2019-04-11T18:20:28.497Z,56.20
2019-04-11T18:22:56.746Z,56.40
2019-04-11T18:25:25.088Z,56.50
2019-04-11T18:27:53.345Z,56.40
2019-04-11T18:30:23.339Z,55.50
2019-04-11T18:32:51.628Z,54.50
2019-04-11T18:35:19.890Z,54.50
2019-04-11T18:37:54.591Z,54.10
2019-04-11T18:40:22.880Z,53.90
2019-04-11T18:42:51.147Z,53.70
2019-04-11T18:45:19.391Z,53.70
2019-04-11T18:47:47.786Z,53.60
2019-04-11T18:50:16.053Z,53.60
2019-04-11T18:52:44.300Z,53.70
2019-04-11T18:55:12.559Z,54.30
2019-04-11T18:57:40.829Z,54.70
2019-04-11T19:00:11.996Z,62.20
2019-04-11T19:02:40.787Z,64.70
2019-04-11T19:05:10.938Z,65.40
2019-04-11T19:07:42.837Z,65.10
2019-04-11T19:10:14.424Z,62.10
2019-04-11T19:12:39.672Z,62.20
2019-04-11T19:15:08.507Z,59.40
2019-04-11T19:23:36.718Z,52.60
2019-04-11T19:26:05.855Z,52.40
2019-04-11T19:28:34.125Z,52.50
2019-04-11T19:31:02.371Z,52.80
2019-04-11T19:33:34.075Z,51.80
2019-04-11T19:36:00.923Z,51.50
2019-04-11T19:38:30.814Z,51.20
2019-04-11T19:40:59.090Z,51.00
2019-04-11T19:43:27.342Z,50.80
2019-04-11T19:45:55.615Z,50.90
2019-04-11T19:48:25.242Z,50.90
2019-04-11T19:50:53.839Z,51.00
2019-04-11T19:53:22.091Z,51.00
2019-04-11T19:55:52.385Z,59.30
2019-04-11T19:58:22.498Z,58.50
2019-04-11T20:00:53.246Z,57.90
2019-04-11T20:03:21.842Z,51.00
2019-04-11T20:05:50.804Z,50.90
2019-04-11T20:08:19.081Z,55.00
2019-04-11T20:10:47.329Z,51.20
2019-04-11T20:13:15.599Z,51.20
2019-04-11T20:15:43.853Z,52.30
2019-04-11T20:18:12.115Z,51.20
2019-04-11T20:20:40.425Z,50.90
2019-04-11T20:23:11.027Z,50.90
2019-04-11T20:25:38.686Z,51.00
2019-04-11T20:28:06.938Z,51.10
2019-04-11T20:30:35.213Z,51.00
2019-04-11T20:33:03.780Z,51.40
2019-04-11T20:35:32.151Z,50.90
2019-04-11T20:38:00.420Z,50.90
2019-04-11T20:40:28.696Z,50.90
2019-04-11T20:42:56.982Z,50.90
2019-04-11T20:45:43.231Z,50.90
2019-04-11T20:48:11.552Z,51.00
2019-04-11T20:50:39.807Z,51.00
2019-04-11T20:53:12.996Z,51.00
2019-04-11T20:55:39.357Z,51.10
2019-04-11T20:58:10.379Z,51.10
2019-04-11T21:00:49.528Z,51.10
2019-04-11T21:03:08.317Z,51.10
2019-04-11T21:05:36.642Z,51.00
2019-04-11T21:08:04.974Z,51.10
2019-04-11T21:10:34.134Z,51.10
2019-04-11T21:13:06.905Z,51.20
2019-04-11T21:15:32.953Z,51.30
2019-04-11T21:18:01.199Z,51.10
2019-04-11T21:20:29.449Z,51.20
2019-04-11T21:22:57.705Z,51.20
2019-04-11T21:25:26.104Z,51.40
2019-04-11T21:27:56.700Z,51.50
2019-04-11T21:30:27.971Z,51.50
2019-04-11T21:32:55.872Z,51.60
2019-04-11T21:35:24.144Z,51.70
2019-04-11T21:37:52.408Z,51.60
2019-04-11T21:40:20.681Z,51.90
2019-04-11T21:42:49.064Z,51.90
2019-04-11T21:45:17.341Z,52.20
2019-04-11T21:47:45.593Z,52.30
2019-04-11T21:50:13.853Z,52.40
2019-04-11T21:52:43.691Z,52.50
2019-04-11T21:55:15.231Z,52.50
2019-04-11T21:57:42.081Z,53.20
2019-04-11T22:00:22.168Z,52.50
2019-04-11T22:02:49.236Z,52.50
2019-04-11T22:05:17.466Z,52.50
2019-04-11T22:07:45.750Z,52.50
2019-04-11T22:10:13.994Z,52.40
2019-04-11T22:12:42.241Z,52.60
2019-04-11T22:15:11.992Z,53.50
2019-04-11T22:17:40.459Z,52.70
2019-04-11T22:20:08.732Z,52.80
2019-04-11T22:22:36.974Z,52.70
2019-04-11T22:25:06.480Z,52.70
2019-04-11T22:27:34.821Z,52.80
2019-04-11T22:30:04.563Z,52.90
2019-04-11T22:32:32.826Z,53.00
2019-04-11T22:35:01.095Z,52.90
2019-04-11T22:37:30.042Z,53.00
2019-04-11T22:40:01.690Z,53.10
2019-04-11T22:42:28.876Z,52.90
2019-04-11T22:44:57.115Z,53.20
2019-04-11T22:47:25.427Z,53.30
2019-04-11T22:49:53.686Z,53.40
2019-04-11T22:52:21.936Z,53.50
2019-04-11T22:54:50.213Z,53.90
2019-04-11T22:57:18.452Z,53.80
2019-04-11T22:59:46.716Z,53.80
2019-04-11T23:02:17.049Z,53.80
2019-04-11T23:04:47.083Z,54.00
2019-04-11T23:07:17.913Z,54.10
2019-04-11T23:09:48.574Z,54.40
2019-04-11T23:12:15.929Z,54.60
2019-04-11T23:14:45.734Z,54.70
2019-04-11T23:17:14.311Z,54.90
2019-04-11T23:19:44.134Z,55.20
2019-04-11T23:22:13.024Z,55.30
2019-04-11T23:24:41.305Z,55.40
2019-04-11T23:27:09.617Z,55.60
2019-04-11T23:29:37.907Z,55.80
2019-04-11T23:32:06.193Z,56.10
2019-04-11T23:34:34.433Z,56.20
2019-04-11T23:37:02.712Z,56.40
2019-04-11T23:39:30.979Z,56.70
2019-04-11T23:41:59.199Z,56.80
2019-04-11T23:44:27.434Z,57.00
2019-04-11T23:46:55.700Z,57.20
2019-04-11T23:49:25.259Z,57.40
2019-04-11T23:51:55.890Z,57.60
2019-04-11T23:54:24.081Z,57.60
2019-04-11T23:56:52.320Z,57.80
2019-04-11T23:59:20.643Z,58.10
